»·PEaware :: N8782R KTRK-KFAT

N8782R :: KTRK-KFAT

FLIGHT INFORMATION

Flight Status: Arrived
Operator: Privately registered:
United States
More flights under this callsign
Pilot: Philip S. (16957)
Aircraft: BEECH AIRCRAFT SUPER KING AIR COMMUTER
(BE20)
More flights by this aircraft type
Origin: KTRK Truckee-Tahoe
United States
Destination: KFAT Fresno Yosemite Intl
United States
More flights between these airports :: More routes between these airports
Route: TRUCK4 TRUCK SWR V338 HNW CZQ
File this flight plan on PilotEdge
Remarks:
Altitude:
(Current/Filed)
21,000ft
Speed:
(Current/Filed)
250kts
Departed: 13-Dec-21 04:41 PM
Arrived: 13-Dec-21 05:36 PM
Distance/Time
Traveled:
154nm/0:55
Distance/Time
To Go:
Arrived

Flight Plot

Page will automatically refresh every two minutes.

Flight plan parsing failed; only flown route is shown


Map Options




Map Legend


Flown Route
Filed Route
Departure Airport
Arrival Airport
Navaid (VOR, NDB)
Fix

Horizontal Profiles

Position Reports

Time Latitude Longitude Heading Altitude Ground
Speed
13-Dec-21 16:03 39.318263 -120.141737 210 5903ft 0kts
13-Dec-21 16:04 39.318263 -120.141737 210 5903ft 0kts
13-Dec-21 16:05 39.318263 -120.141737 210 5903ft 0kts
13-Dec-21 16:06 39.318263 -120.141737 210 5903ft 0kts
13-Dec-21 16:07 39.318263 -120.141737 210 5903ft 0kts
13-Dec-21 16:08 39.318263 -120.141737 210 5903ft 0kts
13-Dec-21 16:09 39.318097 -120.142099 273 5903ft 4kts
13-Dec-21 16:10 39.318986 -120.142889 23 5903ft 6kts
13-Dec-21 16:11 39.320157 -120.144100 299 5903ft 11kts
13-Dec-21 16:12 39.321896 -120.147978 298 5903ft 13kts
13-Dec-21 16:13 39.323847 -120.152827 271 5903ft 14kts
13-Dec-21 16:14 39.324180 -120.153446 68 5903ft 0kts
13-Dec-21 16:15 39.324180 -120.153446 68 5903ft 0kts
13-Dec-21 16:16 39.324180 -120.153446 68 5903ft 0kts
13-Dec-21 16:17 39.324180 -120.153446 68 5903ft 0kts
13-Dec-21 16:18 39.324180 -120.153446 68 5903ft 0kts
13-Dec-21 16:19 39.324180 -120.153446 68 5903ft 0kts
13-Dec-21 16:20 39.324180 -120.153446 68 5903ft 0kts
13-Dec-21 16:21 39.324180 -120.153446 68 5903ft 0kts
13-Dec-21 16:22 39.324180 -120.153446 68 5903ft 0kts
13-Dec-21 16:23 39.324180 -120.153446 68 5903ft 0kts
13-Dec-21 16:24 39.324180 -120.153446 68 5903ft 0kts
13-Dec-21 16:25 39.324180 -120.153446 68 5903ft 0kts
13-Dec-21 16:26 39.324180 -120.153446 68 5903ft 0kts
13-Dec-21 16:27 39.324180 -120.153446 68 5903ft 0kts
13-Dec-21 16:28 39.322959 -120.150345 119 5903ft 15kts
13-Dec-21 16:29 39.320473 -120.144792 120 5903ft 19kts
13-Dec-21 16:30 39.317705 -120.138607 120 5903ft 20kts
13-Dec-21 16:31 39.314858 -120.132285 131 5903ft 17kts
13-Dec-21 16:32 39.314606 -120.131885 44 5903ft 0kts
13-Dec-21 16:33 39.314606 -120.131885 44 5903ft 0kts
13-Dec-21 16:34 39.314606 -120.131885 44 5903ft 0kts
13-Dec-21 16:35 39.314606 -120.131885 44 5903ft 0kts
13-Dec-21 16:36 39.314606 -120.131885 44 5903ft 0kts
13-Dec-21 16:37 39.314606 -120.131885 44 5903ft 0kts
13-Dec-21 16:38 39.314606 -120.131885 44 5903ft 0kts
13-Dec-21 16:39 39.315027 -120.131567 28 5903ft 10kts
13-Dec-21 16:40 39.323423 -120.149360 302 6102ft 139kts
13-Dec-21 16:41 39.355428 -120.180552 331 8060ft 162kts
13-Dec-21 16:42 39.399653 -120.179027 20 9866ft 171kts
13-Dec-21 16:43 39.443319 -120.162957 337 11848ft 158kts
13-Dec-21 16:44 39.438014 -120.198585 188 13860ft 125kts
13-Dec-21 16:45 39.413025 -120.206203 180 15160ft 107kts
13-Dec-21 16:46 39.382038 -120.206571 180 16175ft 139kts
13-Dec-21 16:47 39.334917 -120.209265 188 17705ft 175kts
13-Dec-21 16:48 39.283577 -120.224112 196 19116ft 194kts
13-Dec-21 16:49 39.228593 -120.245496 200 19991ft 224kts
13-Dec-21 16:50 39.169644 -120.281144 218 20619ft 245kts
13-Dec-21 16:51 39.115083 -120.338720 219 20860ft 264kts
13-Dec-21 16:52 39.057049 -120.400129 219 20894ft 273kts
13-Dec-21 16:53 38.997882 -120.462593 219 20862ft 277kts
13-Dec-21 16:54 38.938236 -120.525418 219 20862ft 277kts
13-Dec-21 16:55 38.878437 -120.588198 219 20862ft 277kts
13-Dec-21 16:56 38.818658 -120.650875 218 20862ft 278kts
13-Dec-21 16:57 38.758915 -120.713387 218 20862ft 278kts
13-Dec-21 16:58 38.692496 -120.761185 197 20863ft 277kts
13-Dec-21 16:59 38.619033 -120.790799 196 20862ft 278kts
13-Dec-21 17:00 38.545275 -120.819879 196 20862ft 278kts
13-Dec-21 17:01 38.471620 -120.848816 196 20862ft 278kts
13-Dec-21 17:02 38.397717 -120.877784 196 20862ft 278kts
13-Dec-21 17:03 38.323844 -120.906679 196 20862ft 278kts
13-Dec-21 17:04 38.250027 -120.935490 196 20862ft 278kts
13-Dec-21 17:05 38.176153 -120.964263 196 20862ft 278kts
13-Dec-21 17:06 38.102410 -120.992924 196 20862ft 277kts
13-Dec-21 17:07 38.033773 -120.959821 143 20863ft 277kts
13-Dec-21 17:08 37.972709 -120.899801 141 20862ft 277kts
13-Dec-21 17:09 37.912476 -120.838810 141 20862ft 277kts
13-Dec-21 17:10 37.852342 -120.777907 141 20862ft 277kts
13-Dec-21 17:11 37.792018 -120.716932 141 20862ft 277kts
13-Dec-21 17:12 37.731773 -120.656166 141 20862ft 278kts
13-Dec-21 17:13 37.671981 -120.595941 141 19867ft 268kts
13-Dec-21 17:14 37.615378 -120.539064 141 18253ft 255kts
13-Dec-21 17:15 37.560539 -120.484082 141 16652ft 251kts
13-Dec-21 17:16 37.506388 -120.429896 141 15057ft 249kts
13-Dec-21 17:17 37.452303 -120.375880 141 13457ft 248kts
13-Dec-21 17:18 37.398555 -120.322301 141 11862ft 247kts
13-Dec-21 17:19 37.344739 -120.268758 141 10260ft 247kts
13-Dec-21 17:21 37.292854 -120.217786 142 9860ft 227kts
13-Dec-21 17:22 37.243462 -120.169646 142 9862ft 223kts
13-Dec-21 17:23 37.193452 -120.123896 151 9863ft 222kts
13-Dec-21 17:24 37.137149 -120.086333 152 8741ft 239kts
13-Dec-21 17:25 37.079039 -120.048109 152 7137ft 233kts
13-Dec-21 17:26 37.022212 -120.010779 152 5535ft 230kts
13-Dec-21 17:27 36.965835 -119.973804 152 3932ft 228kts
13-Dec-21 17:28 36.910938 -119.937876 152 2857ft 204kts
13-Dec-21 17:29 36.872658 -119.944749 272 2860ft 159kts
13-Dec-21 17:30 36.899595 -119.949996 81 2860ft 139kts
13-Dec-21 17:31 36.880996 -119.904877 124 2565ft 162kts
13-Dec-21 17:32 36.854983 -119.858828 125 1766ft 162kts
13-Dec-21 17:33 36.829904 -119.814736 125 1665ft 156kts
13-Dec-21 17:34 36.808123 -119.776427 125 1191ft 103kts
13-Dec-21 17:35 36.791805 -119.747671 125 686ft 104kts
13-Dec-21 17:36 36.780098 -119.728359 217 329ft 14kts
13-Dec-21 17:37 36.779964 -119.728480 216 328ft 0kts
13-Dec-21 17:38 36.779964 -119.728480 216 328ft 0kts
13-Dec-21 17:39 36.779068 -119.727925 126 329ft 9kts
13-Dec-21 17:40 36.777055 -119.726437 217 329ft 21kts
13-Dec-21 17:41 36.776730 -119.727005 68 328ft 0kts
13-Dec-21 17:42 36.776730 -119.727005 68 328ft 0kts
13-Dec-21 17:42 36.776730 -119.727005 68 328ft 0kts
13-Dec-21 17:44 36.776730 -119.727005 68 328ft 0kts
13-Dec-21 17:45 36.776730 -119.727005 68 328ft 0kts
13-Dec-21 17:46 36.776730 -119.727005 68 328ft 0kts
13-Dec-21 17:46 36.776730 -119.727005 68 328ft 0kts
13-Dec-21 17:47 36.776730 -119.727005 68 328ft 0kts
13-Dec-21 17:49 36.776730 -119.727005 68 328ft 0kts
13-Dec-21 17:50 36.776730 -119.727005 68 328ft 0kts

Navigation Log

Ident Type
Flight plan parsing failed, navigation log unavailable